createdAt,value
2022-10-29T00:02:26.401Z,4.55
2022-10-29T00:04:53.326Z,5.95
2022-10-29T00:07:20.200Z,5.47
2022-10-29T00:09:47.111Z,5.75
2022-10-29T00:12:14.014Z,5.25
2022-10-29T00:14:40.906Z,6.90
2022-10-29T00:17:07.847Z,4.82
2022-10-29T00:19:34.780Z,4.45
2022-10-29T00:22:01.666Z,3.47
2022-10-29T00:24:28.550Z,4.30
2022-10-29T00:26:55.460Z,3.65
2022-10-29T00:29:22.398Z,5.30
2022-10-29T00:31:50.823Z,5.95
2022-10-29T00:34:17.784Z,4.80
2022-10-29T00:36:44.665Z,5.60
2022-10-29T00:39:18.260Z,5.10
2022-10-29T00:41:45.191Z,3.97
2022-10-29T00:44:14.858Z,4.20
2022-10-29T00:46:48.234Z,6.37
2022-10-29T00:49:15.988Z,6.53
2022-10-29T00:51:43.991Z,6.55
2022-10-29T00:54:13.284Z,5.55
2022-10-29T00:56:59.430Z,8.02
2022-10-29T00:59:27.009Z,2.80
2022-10-29T01:01:56.108Z,5.90
2022-10-29T01:04:25.490Z,4.53
2022-10-29T01:06:52.650Z,6.47
2022-10-29T01:09:19.581Z,3.67
2022-10-29T01:12:10.827Z,4.47
2022-10-29T01:15:13.233Z,3.78
2022-10-29T01:18:15.295Z,7.20
2022-10-29T01:20:58.532Z,4.47
2022-10-29T01:23:59.481Z,7.82
2022-10-29T01:27:00.595Z,5.60
2022-10-29T01:29:30.303Z,3.85
2022-10-29T01:32:17.956Z,7.03
2022-10-29T01:35:03.217Z,7.85
2022-10-29T01:37:47.965Z,10.50
2022-10-29T01:40:25.647Z,5.25
2022-10-29T01:43:07.349Z,10.85
2022-10-29T01:45:43.421Z,8.57
2022-10-29T01:48:15.628Z,7.05
2022-10-29T01:50:46.602Z,11.12
2022-10-29T01:53:14.086Z,10.20
2022-10-29T01:55:41.022Z,9.20
2022-10-29T01:58:11.493Z,7.20
2022-10-29T02:00:54.289Z,5.65
2022-10-29T02:03:32.857Z,7.30
2022-10-29T02:06:25.826Z,12.05
2022-10-29T02:09:01.000Z,6.57
2022-10-29T02:11:37.901Z,4.80
2022-10-29T02:14:24.037Z,7.68
2022-10-29T02:16:51.354Z,3.40
2022-10-29T02:19:18.479Z,5.18
2022-10-29T02:21:45.524Z,4.95
2022-10-29T02:24:12.853Z,9.35
2022-10-29T02:26:39.753Z,4.50
2022-10-29T02:29:06.643Z,5.95
2022-10-29T02:31:33.537Z,7.20
2022-10-29T02:34:00.435Z,5.97
2022-10-29T02:36:27.375Z,7.07
2022-10-29T02:38:54.259Z,4.93
2022-10-29T02:41:21.117Z,7.82
2022-10-29T02:43:48.054Z,5.30
2022-10-29T02:46:17.489Z,5.45
2022-10-29T02:48:44.499Z,5.57
2022-10-29T02:51:11.775Z,3.17
2022-10-29T02:53:39.056Z,9.18
2022-10-29T02:56:06.908Z,4.12
2022-10-29T02:58:33.822Z,4.80
2022-10-29T03:01:01.790Z,10.55
2022-10-29T03:03:28.873Z,5.28
2022-10-29T03:05:55.845Z,7.85
2022-10-29T03:08:22.890Z,5.93
2022-10-29T03:10:49.795Z,3.40
2022-10-29T03:13:18.026Z,5.55
2022-10-29T03:15:45.543Z,11.65
2022-10-29T03:18:12.772Z,7.85
2022-10-29T03:20:39.658Z,8.57
2022-10-29T03:23:06.773Z,7.10
2022-10-29T03:25:33.679Z,6.53
2022-10-29T03:28:00.593Z,4.30
2022-10-29T03:30:27.804Z,10.48
2022-10-29T03:32:55.036Z,6.20
2022-10-29T03:35:22.288Z,6.15
2022-10-29T03:37:50.916Z,7.65
2022-10-29T03:40:18.904Z,5.30
2022-10-29T03:42:46.559Z,3.75
2022-10-29T03:45:13.631Z,4.03
2022-10-29T03:47:40.605Z,3.72
2022-10-29T03:50:08.368Z,7.60
2022-10-29T03:52:35.490Z,11.02
2022-10-29T03:55:02.408Z,9.43
2022-10-29T03:57:29.323Z,6.03
2022-10-29T03:59:56.485Z,9.02
2022-10-29T04:02:24.344Z,9.65
2022-10-29T04:04:51.356Z,10.05
2022-10-29T04:07:18.424Z,6.28
2022-10-29T04:09:45.389Z,7.00
2022-10-29T04:12:12.303Z,8.70
2022-10-29T04:14:44.516Z,12.18
2022-10-29T04:17:13.039Z,6.15
2022-10-29T04:19:40.651Z,10.02
2022-10-29T04:30:28.547Z,9.20
2022-10-29T04:33:01.624Z,9.35
2022-10-29T04:35:29.462Z,9.88
2022-10-29T04:37:56.375Z,7.85
2022-10-29T04:40:24.631Z,7.22
2022-10-29T04:42:51.694Z,8.52
2022-10-29T04:45:19.074Z,8.30
2022-10-29T04:47:46.378Z,9.32
2022-10-29T04:50:13.705Z,9.07
2022-10-29T04:52:40.700Z,8.75
2022-10-29T04:55:08.103Z,9.95
2022-10-29T04:57:35.036Z,8.20
2022-10-29T05:00:02.089Z,8.95
2022-10-29T05:02:29.021Z,7.10
2022-10-29T05:04:55.923Z,6.12
2022-10-29T05:07:22.816Z,11.70
2022-10-29T05:09:49.739Z,6.60
2022-10-29T05:12:16.639Z,7.05
2022-10-29T05:14:43.557Z,4.10
2022-10-29T05:17:10.433Z,9.73
2022-10-29T05:19:37.355Z,7.12
2022-10-29T05:22:04.509Z,6.78
2022-10-29T05:24:31.421Z,7.45
2022-10-29T05:26:58.312Z,6.95
2022-10-29T05:29:25.217Z,5.82
2022-10-29T05:31:54.592Z,7.57
2022-10-29T05:34:21.679Z,13.65
2022-10-29T05:36:48.866Z,10.23
2022-10-29T05:39:16.174Z,3.72
2022-10-29T05:41:43.059Z,6.20
2022-10-29T05:44:10.155Z,5.72
2022-10-29T05:46:37.190Z,6.00
2022-10-29T05:49:04.645Z,7.15
2022-10-29T05:51:31.606Z,8.20
2022-10-29T05:53:58.537Z,8.57
2022-10-29T05:56:25.423Z,13.38
2022-10-29T05:58:52.380Z,8.63
2022-10-29T06:01:22.061Z,10.32
2022-10-29T06:03:49.225Z,8.85
2022-10-29T06:06:16.199Z,11.20
2022-10-29T06:08:43.279Z,7.43
2022-10-29T06:11:10.189Z,8.75
2022-10-29T06:13:37.128Z,9.57
2022-10-29T06:16:04.178Z,8.15
2022-10-29T06:18:31.124Z,6.18
2022-10-29T06:20:59.707Z,6.62
2022-10-29T06:23:27.942Z,6.53
2022-10-29T06:25:54.887Z,7.53
2022-10-29T06:28:21.850Z,8.40
2022-10-29T06:30:50.299Z,5.53
2022-10-29T06:33:18.742Z,4.35
2022-10-29T06:35:46.147Z,7.40
2022-10-29T06:38:13.498Z,10.10
2022-10-29T06:40:42.891Z,4.30
2022-10-29T06:43:12.312Z,7.00
2022-10-29T06:45:39.476Z,9.15
2022-10-29T06:48:06.870Z,10.63
2022-10-29T06:50:34.305Z,8.32
2022-10-29T06:53:06.066Z,10.18
2022-10-29T06:55:36.278Z,7.85
2022-10-29T06:58:06.203Z,10.40
2022-10-29T07:00:34.586Z,9.68
2022-10-29T07:03:01.722Z,7.32
2022-10-29T07:05:28.677Z,7.12
2022-10-29T07:08:01.072Z,8.40
2022-10-29T07:10:29.977Z,7.87
2022-10-29T07:12:57.331Z,9.13
2022-10-29T07:15:27.825Z,7.47
2022-10-29T07:18:06.073Z,5.07
2022-10-29T07:20:35.952Z,11.70
2022-10-29T07:23:03.079Z,9.43
2022-10-29T07:25:31.217Z,6.40
2022-10-29T07:28:20.923Z,10.52
2022-10-29T07:30:51.018Z,4.40
2022-10-29T07:33:19.081Z,5.32
2022-10-29T07:35:46.097Z,8.15
2022-10-29T07:38:13.802Z,4.53
2022-10-29T07:40:47.768Z,13.07
2022-10-29T07:43:14.959Z,5.25
2022-10-29T07:45:44.907Z,8.85
2022-10-29T07:48:11.877Z,8.93
2022-10-29T07:50:39.414Z,6.55
2022-10-29T07:53:07.752Z,9.07
2022-10-29T07:55:35.237Z,7.03
2022-10-29T07:58:04.699Z,10.57
2022-10-29T08:00:33.891Z,10.30
2022-10-29T08:03:00.943Z,4.85
2022-10-29T08:05:30.064Z,7.03
2022-10-29T08:07:57.903Z,6.53
2022-10-29T08:10:26.365Z,9.18
2022-10-29T08:12:58.838Z,11.40
2022-10-29T08:15:27.796Z,5.07
2022-10-29T08:17:55.462Z,5.40
2022-10-29T08:20:24.665Z,8.30
2022-10-29T08:22:51.583Z,7.18
2022-10-29T08:25:18.904Z,7.05
2022-10-29T08:27:45.858Z,7.10
2022-10-29T08:30:14.150Z,7.78
2022-10-29T08:32:47.825Z,10.77
2022-10-29T08:35:15.217Z,8.43
2022-10-29T08:37:45.974Z,51.42
2022-10-29T08:40:30.754Z,8.00
2022-10-29T08:43:11.354Z,5.00
2022-10-29T08:45:47.992Z,3.22
2022-10-29T08:48:33.944Z,4.50
2022-10-29T08:51:17.377Z,4.20
2022-10-29T08:54:10.249Z,20.42
2022-10-29T08:56:40.409Z,6.03
2022-10-29T08:59:20.412Z,3.97
2022-10-29T09:01:47.960Z,8.75
2022-10-29T09:04:33.065Z,5.12
2022-10-29T09:07:27.385Z,6.60
2022-10-29T09:10:07.898Z,7.35
2022-10-29T09:13:21.389Z,7.35
2022-10-29T09:16:13.843Z,10.60
2022-10-29T09:19:13.715Z,6.90
2022-10-29T09:22:14.857Z,7.40
2022-10-29T09:25:15.238Z,5.50
2022-10-29T09:28:29.952Z,6.78
2022-10-29T09:31:19.933Z,6.30
2022-10-29T09:33:49.771Z,5.37
2022-10-29T09:36:19.990Z,9.40
2022-10-29T09:39:02.899Z,5.45
2022-10-29T09:41:34.762Z,6.22
2022-10-29T09:44:46.781Z,5.12
2022-10-29T09:47:27.794Z,9.10
2022-10-29T09:50:12.579Z,5.72
2022-10-29T09:52:44.382Z,4.80
2022-10-29T09:55:43.512Z,9.75
2022-10-29T09:58:23.799Z,9.77
2022-10-29T10:00:52.279Z,5.25
2022-10-29T10:03:30.686Z,6.55
2022-10-29T10:06:02.041Z,5.75
2022-10-29T10:08:29.660Z,7.43
2022-10-29T10:10:57.798Z,7.55
2022-10-29T10:13:30.342Z,7.90
2022-10-29T10:15:59.423Z,4.95
2022-10-29T10:18:27.904Z,6.47
2022-10-29T10:21:34.759Z,5.47
2022-10-29T10:24:02.745Z,6.37
2022-10-29T10:26:43.495Z,6.62
2022-10-29T10:29:22.599Z,6.55
2022-10-29T10:31:55.564Z,5.30
2022-10-29T10:34:24.721Z,8.18
2022-10-29T10:37:02.974Z,4.72
2022-10-29T10:39:32.804Z,5.78
2022-10-29T10:42:03.002Z,5.68
2022-10-29T10:44:30.391Z,5.47
2022-10-29T10:47:04.576Z,5.82
2022-10-29T10:49:37.274Z,7.62
2022-10-29T10:52:12.966Z,6.90
2022-10-29T10:54:47.789Z,6.28
2022-10-29T10:57:17.176Z,5.10
2022-10-29T10:59:55.131Z,7.60
2022-10-29T11:02:39.466Z,6.47
2022-10-29T11:05:10.540Z,5.82
2022-10-29T11:07:41.851Z,8.90
2022-10-29T11:10:13.729Z,5.35
2022-10-29T11:12:46.589Z,6.55
2022-10-29T11:15:19.641Z,6.47
2022-10-29T11:18:00.926Z,7.55
2022-10-29T11:20:32.504Z,9.20
2022-10-29T11:22:59.682Z,6.22
2022-10-29T11:25:32.047Z,8.50
2022-10-29T11:28:41.266Z,5.72
2022-10-29T11:31:31.846Z,8.85
2022-10-29T11:34:21.375Z,4.68
2022-10-29T11:37:03.014Z,10.23
2022-10-29T11:39:47.533Z,5.45
2022-10-29T11:42:14.607Z,6.95
2022-10-29T11:44:41.788Z,8.65
2022-10-29T11:47:46.284Z,6.60
2022-10-29T11:50:46.079Z,7.97
2022-10-29T11:53:35.826Z,10.32
2022-10-29T11:56:23.668Z,8.75
2022-10-29T11:58:56.559Z,11.40
2022-10-29T12:01:54.792Z,8.23
2022-10-29T12:04:35.231Z,7.20
2022-10-29T12:07:32.388Z,9.88
2022-10-29T12:10:28.987Z,8.32
2022-10-29T12:13:32.917Z,7.10
2022-10-29T12:16:03.018Z,6.62
2022-10-29T12:18:42.882Z,10.77
2022-10-29T12:21:22.532Z,8.00
2022-10-29T12:24:06.119Z,8.27
2022-10-29T12:27:10.391Z,4.43
2022-10-29T12:29:47.822Z,8.35
2022-10-29T12:32:29.880Z,8.02
2022-10-29T12:35:03.117Z,8.05
2022-10-29T12:37:40.668Z,12.45
2022-10-29T12:40:26.600Z,9.95
2022-10-29T12:42:55.447Z,6.78
2022-10-29T12:46:06.875Z,10.15
2022-10-29T12:48:45.311Z,8.25
2022-10-29T12:51:42.604Z,9.10
2022-10-29T12:54:18.600Z,8.20
2022-10-29T12:56:49.397Z,6.53
2022-10-29T12:59:35.298Z,9.63
2022-10-29T13:02:36.480Z,6.47
2022-10-29T13:05:06.572Z,10.27
2022-10-29T13:07:34.397Z,10.20
2022-10-29T13:10:23.039Z,9.68
2022-10-29T13:12:58.863Z,6.85
2022-10-29T13:15:30.448Z,8.15
2022-10-29T13:18:04.416Z,7.82
2022-10-29T13:20:39.688Z,8.93
2022-10-29T13:23:24.791Z,9.43
2022-10-29T13:25:56.477Z,9.63
2022-10-29T13:28:23.326Z,8.20
2022-10-29T13:31:14.328Z,5.40
2022-10-29T13:33:41.187Z,7.87
2022-10-29T13:36:17.495Z,7.70
2022-10-29T13:39:04.218Z,5.87
2022-10-29T13:41:44.091Z,6.05
2022-10-29T13:44:19.554Z,7.50
2022-10-29T13:46:55.732Z,9.68
2022-10-29T13:49:36.969Z,12.52
2022-10-29T13:52:11.652Z,12.93
2022-10-29T13:54:44.273Z,10.50
2022-10-29T13:57:16.707Z,11.12
2022-10-29T13:59:58.706Z,13.55
2022-10-29T14:02:43.501Z,14.38
2022-10-29T14:05:30.255Z,12.15
2022-10-29T14:08:09.009Z,14.87
2022-10-29T14:10:42.957Z,14.27
2022-10-29T14:13:24.846Z,14.87
2022-10-29T14:16:07.125Z,13.30
2022-10-29T14:18:36.259Z,12.07
2022-10-29T14:21:06.000Z,10.20
2022-10-29T14:23:33.773Z,12.93
2022-10-29T14:26:04.005Z,16.02
2022-10-29T14:28:32.840Z,15.48
2022-10-29T14:31:07.359Z,14.38
2022-10-29T14:33:36.753Z,12.70
2022-10-29T14:36:34.378Z,12.73
2022-10-29T14:39:13.410Z,15.23
2022-10-29T14:41:40.600Z,13.00
2022-10-29T14:44:19.809Z,16.52
2022-10-29T14:47:13.678Z,13.32
2022-10-29T14:49:46.055Z,15.15
2022-10-29T14:52:30.699Z,12.13
2022-10-29T14:55:02.287Z,17.48
2022-10-29T14:57:33.694Z,11.43
2022-10-29T15:00:04.757Z,13.45
2022-10-29T15:02:39.655Z,10.77
2022-10-29T15:05:28.466Z,13.50
2022-10-29T15:08:16.203Z,9.68
2022-10-29T15:10:51.062Z,15.30
2022-10-29T15:13:26.786Z,11.57
2022-10-29T15:16:10.402Z,16.30
2022-10-29T15:18:37.908Z,10.02
2022-10-29T15:21:05.695Z,12.80
2022-10-29T15:23:43.276Z,10.18
2022-10-29T15:26:21.224Z,14.20
2022-10-29T15:28:52.185Z,8.70
2022-10-29T15:31:59.237Z,7.75
2022-10-29T15:34:32.164Z,14.40
2022-10-29T15:37:19.894Z,9.82
2022-10-29T15:39:56.611Z,11.23
2022-10-29T15:42:29.354Z,12.20
2022-10-29T15:45:08.591Z,10.73
2022-10-29T15:47:37.440Z,13.05
2022-10-29T15:50:06.255Z,10.40
2022-10-29T15:52:39.353Z,8.32
2022-10-29T15:55:14.984Z,13.52
2022-10-29T15:57:44.228Z,9.02
2022-10-29T16:00:12.545Z,9.57
2022-10-29T16:02:39.734Z,17.42
2022-10-29T16:05:07.037Z,12.68
2022-10-29T16:07:34.398Z,15.57
2022-10-29T16:10:01.888Z,10.40
2022-10-29T16:12:28.876Z,13.30
2022-10-29T16:14:55.936Z,19.50
2022-10-29T16:17:22.874Z,23.67
2022-10-29T16:19:49.773Z,9.00
2022-10-29T16:22:36.967Z,14.25
2022-10-29T16:25:04.349Z,12.07
2022-10-29T16:27:31.297Z,9.77
2022-10-29T16:29:58.255Z,13.43
2022-10-29T16:32:25.597Z,16.58
2022-10-29T16:34:52.934Z,14.02
2022-10-29T16:37:21.165Z,10.07
2022-10-29T16:39:48.156Z,11.20
2022-10-29T16:42:35.667Z,12.50
2022-10-29T16:45:03.149Z,15.43
2022-10-29T16:47:30.058Z,12.05
2022-10-29T16:49:56.987Z,17.30
2022-10-29T16:52:26.331Z,12.93
2022-10-29T16:54:54.652Z,12.07
2022-10-29T16:57:21.631Z,9.95
2022-10-29T16:59:48.745Z,13.05
2022-10-29T17:02:15.743Z,11.23
2022-10-29T17:04:45.653Z,13.13
2022-10-29T17:07:12.578Z,15.32
2022-10-29T17:09:40.167Z,14.73
2022-10-29T17:12:07.529Z,15.68
2022-10-29T17:14:34.520Z,10.63
2022-10-29T17:17:01.964Z,19.20
2022-10-29T17:19:29.314Z,16.62
2022-10-29T17:21:58.786Z,13.30
2022-10-29T17:24:27.216Z,10.70
2022-10-29T17:26:54.469Z,18.80
2022-10-29T17:29:21.683Z,11.12
2022-10-29T17:31:48.692Z,14.43
2022-10-29T17:34:15.747Z,9.68
2022-10-29T17:36:44.468Z,13.07
2022-10-29T17:39:12.047Z,9.50
2022-10-29T17:41:39.013Z,13.32
2022-10-29T17:44:05.982Z,16.50
2022-10-29T17:46:33.778Z,11.98
2022-10-29T17:49:00.837Z,14.18
2022-10-29T17:51:28.841Z,11.88
2022-10-29T17:53:56.481Z,11.70
2022-10-29T17:56:23.595Z,13.80
2022-10-29T17:58:50.967Z,15.35
2022-10-29T18:01:19.411Z,13.80
2022-10-29T18:03:46.365Z,18.77
2022-10-29T18:06:14.614Z,13.70
2022-10-29T18:08:42.812Z,10.35
2022-10-29T18:11:17.014Z,16.23
2022-10-29T18:13:45.260Z,10.80
2022-10-29T18:16:24.292Z,10.07
2022-10-29T18:19:02.211Z,8.30
2022-10-29T18:21:31.081Z,7.72
2022-10-29T18:23:58.403Z,6.50
2022-10-29T18:26:31.149Z,7.15
2022-10-29T18:29:01.458Z,10.55
2022-10-29T18:31:30.934Z,10.32
2022-10-29T18:34:05.383Z,9.50
2022-10-29T18:36:32.949Z,16.20
2022-10-29T18:39:00.203Z,6.78
2022-10-29T18:41:27.274Z,8.98
2022-10-29T18:43:54.778Z,6.65
2022-10-29T18:46:22.422Z,8.95
2022-10-29T18:48:49.947Z,7.37
2022-10-29T18:51:24.436Z,8.98
2022-10-29T18:53:53.203Z,11.43
2022-10-29T18:56:21.597Z,8.25
2022-10-29T18:58:49.220Z,11.40
2022-10-29T19:01:19.746Z,13.05
2022-10-29T19:03:57.201Z,14.25
2022-10-29T19:06:27.472Z,15.63
2022-10-29T19:08:55.225Z,13.60
2022-10-29T19:11:25.528Z,18.27
2022-10-29T19:13:53.875Z,20.17
2022-10-29T19:16:21.405Z,16.23
2022-10-29T19:19:22.926Z,15.32
2022-10-29T19:21:51.123Z,12.80
2022-10-29T19:24:18.270Z,12.02
2022-10-29T19:26:45.333Z,16.05
2022-10-29T19:29:13.394Z,16.10
2022-10-29T19:31:40.756Z,11.82
2022-10-29T19:34:08.210Z,11.70
2022-10-29T19:36:36.543Z,12.90
2022-10-29T19:39:04.166Z,16.20
2022-10-29T19:41:31.480Z,10.60
2022-10-29T19:44:02.449Z,9.77
2022-10-29T19:46:29.831Z,12.13
2022-10-29T19:49:11.840Z,14.13
2022-10-29T19:51:40.466Z,15.23
2022-10-29T19:54:23.399Z,7.75
2022-10-29T19:56:50.787Z,9.07
2022-10-29T19:59:17.858Z,8.32
2022-10-29T20:01:46.733Z,10.70
2022-10-29T20:04:13.976Z,11.48
2022-10-29T20:06:41.164Z,7.32
2022-10-29T20:09:08.116Z,5.22
2022-10-29T20:11:35.388Z,13.73
2022-10-29T20:14:02.356Z,11.40
2022-10-29T20:16:29.306Z,7.15
2022-10-29T20:18:56.445Z,14.23
2022-10-29T20:21:23.459Z,6.12
2022-10-29T20:23:50.566Z,10.13
2022-10-29T20:26:17.552Z,7.47
2022-10-29T20:28:44.520Z,12.10
2022-10-29T20:31:17.523Z,9.88
2022-10-29T20:33:51.622Z,8.48
2022-10-29T20:36:20.210Z,7.85
2022-10-29T20:38:51.772Z,8.05
2022-10-29T20:41:19.501Z,9.35
2022-10-29T20:43:51.941Z,9.13
2022-10-29T20:46:18.996Z,10.38
2022-10-29T20:48:45.897Z,11.32
2022-10-29T20:51:13.581Z,10.32
2022-10-29T20:53:41.005Z,15.80
2022-10-29T20:56:10.397Z,15.82
2022-10-29T20:58:40.169Z,11.52
2022-10-29T21:01:08.858Z,13.48
2022-10-29T21:03:35.994Z,9.88
2022-10-29T21:06:04.315Z,10.32
2022-10-29T21:08:31.638Z,13.15
2022-10-29T21:11:09.571Z,18.73
2022-10-29T21:13:37.207Z,17.98
2022-10-29T21:16:10.806Z,14.82
2022-10-29T21:18:39.541Z,11.60
2022-10-29T21:21:07.502Z,9.07
2022-10-29T21:23:37.251Z,8.88
2022-10-29T21:26:05.488Z,14.13
2022-10-29T21:28:33.310Z,12.75
2022-10-29T21:31:00.207Z,7.22
2022-10-29T21:33:27.146Z,8.77
2022-10-29T21:35:55.659Z,9.20
2022-10-29T21:38:23.775Z,10.40
2022-10-29T21:40:51.333Z,9.40
2022-10-29T21:43:18.746Z,5.22
2022-10-29T21:45:45.920Z,11.57
2022-10-29T21:48:12.989Z,11.38
2022-10-29T21:50:40.112Z,7.87
2022-10-29T21:53:07.959Z,11.40
2022-10-29T21:55:36.403Z,8.35
2022-10-29T21:58:03.890Z,9.43
2022-10-29T22:00:32.025Z,9.50
2022-10-29T22:03:04.166Z,11.20
2022-10-29T22:05:31.821Z,8.45
2022-10-29T22:07:59.159Z,8.50
2022-10-29T22:10:26.546Z,5.87
2022-10-29T22:12:53.495Z,6.43
2022-10-29T22:15:20.394Z,6.10
2022-10-29T22:17:47.424Z,9.00
2022-10-29T22:20:14.402Z,5.97
2022-10-29T22:22:41.328Z,7.05
2022-10-29T22:25:08.623Z,8.52
2022-10-29T22:27:35.967Z,11.65
2022-10-29T22:30:03.179Z,5.47
2022-10-29T22:32:30.086Z,9.98
2022-10-29T22:34:57.099Z,11.52
2022-10-29T22:37:24.065Z,13.75
2022-10-29T22:39:51.001Z,13.98
2022-10-29T22:42:17.881Z,11.65
2022-10-29T22:44:44.791Z,13.52
2022-10-29T22:47:11.729Z,18.42
2022-10-29T22:49:38.609Z,14.32
2022-10-29T22:52:05.529Z,13.05
2022-10-29T22:54:32.462Z,17.83
2022-10-29T22:56:59.400Z,21.00
2022-10-29T22:59:26.352Z,17.55
2022-10-29T23:01:53.407Z,25.42
2022-10-29T23:04:20.689Z,33.95
2022-10-29T23:06:47.905Z,24.27
2022-10-29T23:09:14.854Z,32.40
2022-10-29T23:11:41.763Z,22.20
2022-10-29T23:14:08.630Z,35.30
2022-10-29T23:16:36.424Z,22.15
2022-10-29T23:19:05.958Z,20.45
2022-10-29T23:21:33.575Z,26.60
2022-10-29T23:24:00.565Z,35.42
2022-10-29T23:26:28.015Z,26.30
2022-10-29T23:28:55.357Z,24.02
2022-10-29T23:31:24.572Z,36.17
2022-10-29T23:33:53.478Z,30.33
2022-10-29T23:36:22.067Z,24.83
2022-10-29T23:38:53.907Z,29.85
2022-10-29T23:41:20.824Z,27.62
2022-10-29T23:43:47.739Z,23.60
2022-10-29T23:46:14.650Z,26.87
2022-10-29T23:48:41.588Z,21.42
2022-10-29T23:51:08.532Z,25.90
2022-10-29T23:53:35.442Z,27.15
2022-10-29T23:56:02.381Z,28.10
2022-10-29T23:58:29.308Z,24.75
